Time;durP1;ratioP1;P1;durP2;ratioP2;P2;SDS_P1;SDS_P2;PMS_P1;PMS_P2;Temp;Humidity;BMP_temperature;BMP_pressure;BME280_temperature;BME280_humidity;BME280_pressure;Samples;Min_cycle;Max_cycle;Signal;HPM_P1;HPM_P2
2024/04/09 00:01:02;;;;;;;24.77;11.43;;;18.00;87.30;;;;;;5564460;25;20004;-88
2024/04/09 00:03:32;;;;;;;18.38;11.13;;;18.00;87.50;;;;;;5565117;25;20444;-88
2024/04/09 00:05:58;;;;;;;15.20;10.63;;;18.00;87.50;;;;;;5567407;25;20045;-89
2024/04/09 00:08:27;;;;;;;19.83;11.43;;;17.90;87.50;;;;;;5567196;25;19993;-88
2024/04/09 00:10:53;;;;;;;16.13;11.15;;;17.90;87.70;;;;;;5566608;25;20040;-86
2024/04/09 00:13:20;;;;;;;14.93;10.50;;;17.90;87.80;;;;;;5568920;25;19992;-88
2024/04/09 00:15:46;;;;;;;18.17;10.85;;;17.90;87.80;;;;;;5567429;25;19993;-88
2024/04/09 00:18:14;;;;;;;19.13;11.05;;;17.80;87.90;;;;;;5576011;25;20419;-88
2024/04/09 00:20:44;;;;;;;17.60;10.68;;;17.80;88.00;;;;;;5570618;25;20003;-87
2024/04/09 00:23:12;;;;;;;13.90;10.45;;;17.80;88.00;;;;;;5566908;25;20004;-88
2024/04/09 00:25:39;;;;;;;14.13;9.68;;;17.80;88.20;;;;;;5571390;25;20008;-88
2024/04/09 00:28:05;;;;;;;14.75;10.25;;;17.80;88.20;;;;;;5572716;25;20115;-86
2024/04/09 00:30:31;;;;;;;17.15;9.90;;;17.80;88.30;;;;;;5587251;25;19985;-86
2024/04/09 00:32:57;;;;;;;14.57;9.38;;;17.70;88.30;;;;;;5574915;25;20034;-88
2024/04/09 00:35:23;;;;;;;13.85;9.43;;;17.80;88.50;;;;;;5572560;25;20008;-87
2024/04/09 00:37:54;;;;;;;17.50;9.82;;;17.80;88.60;;;;;;5565003;25;19997;-88
2024/04/09 00:40:29;;;;;;;14.65;9.45;;;17.70;88.60;;;;;;5563460;25;19993;-87
2024/04/09 00:42:57;;;;;;;17.20;10.48;;;17.70;88.80;;;;;;5564966;25;20003;-87
2024/04/09 00:45:24;;;;;;;16.75;9.93;;;17.70;89.70;;;;;;5564102;25;20011;-86
2024/04/09 00:47:55;;;;;;;18.63;9.90;;;17.70;89.10;;;;;;5563357;25;20005;-87
2024/04/09 00:50:24;;;;;;;15.55;10.48;;;17.70;89.30;;;;;;5563657;25;20020;-87
2024/04/09 00:52:51;;;;;;;15.00;10.18;;;17.70;89.30;;;;;;5564055;25;20007;-87
2024/04/09 00:55:24;;;;;;;14.85;10.38;;;17.60;89.20;;;;;;5567322;25;20003;-87
2024/04/09 00:57:52;;;;;;;14.00;10.70;;;17.70;89.50;;;;;;5572201;25;20071;-87
2024/04/09 01:00:19;;;;;;;15.70;9.93;;;17.70;89.40;;;;;;5572478;25;20028;-87
2024/04/09 01:02:48;;;;;;;16.42;10.32;;;17.60;89.40;;;;;;5564423;25;20519;-87
2024/04/09 01:05:18;;;;;;;16.02;10.93;;;17.70;89.50;;;;;;5563411;25;20480;-86
2024/04/09 01:07:44;;;;;;;22.58;12.15;;;17.60;89.30;;;;;;5563709;25;20005;-86
2024/04/09 01:10:13;;;;;;;19.58;13.30;;;17.70;89.20;;;;;;5573748;25;20004;-88
2024/04/09 01:12:38;;;;;;;21.95;13.95;;;17.70;89.40;;;;;;5578356;25;19997;-87
2024/04/09 01:15:05;;;;;;;19.48;12.82;;;17.60;89.00;;;;;;5579065;25;20297;-86
2024/04/09 01:17:32;;;;;;;21.20;12.73;;;17.70;89.20;;;;;;5580387;25;19997;-86
2024/04/09 01:19:57;;;;;;;22.20;14.30;;;17.70;89.00;;;;;;5579517;25;19993;-88
2024/04/09 01:22:29;;;;;;;22.00;14.45;;;17.60;88.70;;;;;;5577957;25;20000;-85
2024/04/09 01:24:55;;;;;;;25.23;16.38;;;17.60;88.80;;;;;;5583035;25;20045;-87
2024/04/09 01:27:21;;;;;;;27.63;18.48;;;17.60;88.90;;;;;;5577756;25;20421;-86
2024/04/09 01:29:49;;;;;;;28.20;17.33;;;17.60;88.70;;;;;;5569364;25;20003;-86
2024/04/09 01:32:15;;;;;;;29.10;18.25;;;17.60;88.80;;;;;;5577026;25;19997;-87
2024/04/09 01:34:40;;;;;;;26.65;18.08;;;17.50;88.80;;;;;;5575960;25;20107;-87
2024/04/09 01:37:11;;;;;;;27.80;16.90;;;17.50;88.70;;;;;;5566906;25;19996;-85
2024/04/09 01:39:38;;;;;;;28.13;17.85;;;17.50;89.20;;;;;;5566587;25;20040;-76
2024/04/09 01:42:04;;;;;;;27.23;18.17;;;17.50;88.30;;;;;;5566730;25;20507;-86
2024/04/09 01:44:30;;;;;;;29.83;16.85;;;17.50;88.10;;;;;;5571661;25;19993;-86
2024/04/09 01:46:55;;;;;;;25.40;17.15;;;17.50;87.70;;;;;;5570531;25;20331;-87
2024/04/09 01:49:23;;;;;;;27.50;18.77;;;17.50;87.40;;;;;;5567211;25;20008;-87
2024/04/09 01:51:49;;;;;;;26.60;18.25;;;17.60;87.40;;;;;;5565837;25;20536;-85
2024/04/09 01:54:15;;;;;;;27.95;18.73;;;17.60;87.20;;;;;;5566125;25;20081;-85
2024/04/09 01:56:40;;;;;;;25.70;18.17;;;17.50;87.00;;;;;;5567187;25;20116;-86
2024/04/09 01:59:06;;;;;;;29.58;19.17;;;17.60;87.10;;;;;;5569895;25;20004;-86
2024/04/09 02:01:33;;;;;;;32.28;20.38;;;17.50;87.00;;;;;;5572230;25;19997;-86
2024/04/09 02:04:01;;;;;;;32.22;22.02;;;17.50;87.00;;;;;;5566058;25;20004;-86
2024/04/09 02:06:28;;;;;;;31.60;21.55;;;17.50;87.00;;;;;;5564825;25;20076;-85
2024/04/09 02:08:54;;;;;;;35.03;21.67;;;17.50;87.00;;;;;;5566264;25;20463;-86
2024/04/09 02:11:22;;;;;;;31.83;20.67;;;17.40;86.80;;;;;;5566271;25;19989;-86
2024/04/09 02:13:48;;;;;;;32.22;21.13;;;17.40;86.80;;;;;;5568696;25;20008;-86
2024/04/09 02:16:16;;;;;;;31.75;20.17;;;17.40;87.50;;;;;;5569473;25;19997;-85
2024/04/09 02:18:42;;;;;;;35.25;20.05;;;17.40;86.90;;;;;;5573602;25;20009;-84
2024/04/09 02:21:09;;;;;;;29.42;17.70;;;17.40;86.70;;;;;;5578863;25;19997;-85
2024/04/09 02:23:36;;;;;;;29.95;17.73;;;17.30;86.60;;;;;;5573938;25;19997;-85
2024/04/09 02:26:02;;;;;;;29.77;18.98;;;17.30;86.70;;;;;;5567060;25;20127;-85
2024/04/09 02:28:29;;;;;;;27.75;17.80;;;17.20;86.70;;;;;;5565396;25;20068;-86
2024/04/09 02:30:56;;;;;;;29.80;19.58;;;17.20;86.70;;;;;;5564095;25;20053;-87
2024/04/09 02:33:22;;;;;;;30.85;18.42;;;17.20;86.80;;;;;;5565847;25;20000;-86
2024/04/09 02:36:01;;;;;;;29.58;19.30;;;17.20;86.90;;;;;;5565126;25;19999;-85
2024/04/09 02:38:29;;;;;;;29.58;19.50;;;17.10;86.70;;;;;;5565070;25;20007;-86
2024/04/09 02:40:55;;;;;;;35.67;20.80;;;17.10;86.90;;;;;;5565373;25;20318;-87
2024/04/09 02:43:21;;;;;;;38.67;22.95;;;17.10;86.70;;;;;;5566582;25;20040;-86
2024/04/09 02:45:51;;;;;;;43.53;23.55;;;17.20;86.90;;;;;;5565874;25;20001;-86
2024/04/09 02:48:17;;;;;;;34.92;22.13;;;17.10;86.80;;;;;;5564949;25;20028;-85
2024/04/09 02:50:43;;;;;;;29.08;19.33;;;17.10;86.50;;;;;;5564431;25;20008;-86
2024/04/09 02:53:09;;;;;;;29.95;20.13;;;17.10;86.70;;;;;;5565043;25;20340;-84
2024/04/09 02:55:36;;;;;;;33.00;20.10;;;17.00;87.00;;;;;;5565447;25;20004;-85
2024/04/09 02:58:03;;;;;;;35.45;23.15;;;17.00;87.30;;;;;;5564972;25;20479;-85
2024/04/09 03:00:30;;;;;;;30.77;22.45;;;16.90;87.50;;;;;;5565467;25;19997;-85
2024/04/09 03:02:58;;;;;;;35.78;22.88;;;16.80;87.50;;;;;;5564441;25;20305;-86
2024/04/09 03:05:29;;;;;;;36.10;21.23;;;16.80;87.80;;;;;;5575683;25;20066;-86
2024/04/09 03:07:55;;;;;;;35.03;22.38;;;16.80;87.80;;;;;;5569075;25;19997;-85
2024/04/09 03:10:21;;;;;;;35.63;22.40;;;16.70;87.90;;;;;;5574093;25;19997;-85
2024/04/09 03:12:48;;;;;;;34.45;22.55;;;16.70;88.00;;;;;;5576520;25;20005;-85
2024/04/09 03:15:13;;;;;;;42.60;25.58;;;16.70;88.20;;;;;;5588137;25;19989;-84
2024/04/09 03:17:42;;;;;;;38.92;24.92;;;16.60;88.30;;;;;;5581826;25;20036;-82
2024/04/09 03:20:10;;;;;;;37.67;22.88;;;16.60;88.50;;;;;;5564173;25;20401;-86
2024/04/09 03:22:38;;;;;;;36.83;23.10;;;16.60;88.60;;;;;;5568089;25;20005;-85
2024/04/09 03:25:05;;;;;;;33.35;22.23;;;16.60;88.30;;;;;;5566595;25;19996;-87
2024/04/09 03:27:32;;;;;;;35.78;21.98;;;16.70;88.60;;;;;;5567109;25;20417;-85
2024/04/09 03:29:59;;;;;;;29.05;20.48;;;16.70;88.30;;;;;;5569330;25;19993;-85
2024/04/09 03:32:28;;;;;;;30.08;17.08;;;16.60;88.20;;;;;;5565207;25;20004;-84
2024/04/09 03:34:54;;;;;;;24.63;16.48;;;16.50;89.10;;;;;;5563083;25;20060;-84
2024/04/09 03:37:20;;;;;;;18.27;14.30;;;16.50;89.00;;;;;;5565592;25;20442;-84
2024/04/09 03:39:45;;;;;;;18.92;15.00;;;16.40;89.30;;;;;;5575014;25;20008;-83
2024/04/09 03:42:11;;;;;;;23.27;13.48;;;16.30;89.20;;;;;;5567493;25;19993;-84
2024/04/09 03:44:37;;;;;;;21.02;13.25;;;16.30;89.90;;;;;;5564617;25;19992;-86
2024/04/09 03:47:04;;;;;;;26.75;12.82;;;16.20;89.90;;;;;;5564146;25;19996;-85
2024/04/09 03:49:38;;;;;;;19.20;12.10;;;16.20;90.00;;;;;;5563792;25;20389;-83
2024/04/09 03:52:05;;;;;;;23.90;15.27;;;16.10;90.00;;;;;;5564048;25;20017;-84
2024/04/09 03:54:32;;;;;;;19.95;14.02;;;16.10;90.00;;;;;;5564387;25;20004;-84
2024/04/09 03:57:03;;;;;;;19.80;12.50;;;16.10;90.20;;;;;;5573111;25;20070;-82
2024/04/09 03:59:33;;;;;;;19.92;12.57;;;16.00;90.00;;;;;;5570909;25;19989;-83
2024/04/09 04:01:59;;;;;;;22.63;13.38;;;16.00;90.10;;;;;;5567368;25;20107;-84
2024/04/09 04:04:25;;;;;;;22.73;15.55;;;16.00;90.20;;;;;;5569372;25;20341;-84
2024/04/09 04:06:50;;;;;;;22.77;14.88;;;15.90;90.20;;;;;;5563889;25;20035;-84
2024/04/09 04:09:16;;;;;;;17.13;12.70;;;15.90;90.30;;;;;;5563853;25;20003;-85
2024/04/09 04:11:42;;;;;;;22.00;14.63;;;15.90;90.20;;;;;;5563919;25;20438;-85
2024/04/09 04:14:08;;;;;;;18.90;13.63;;;15.90;90.40;;;;;;5563175;25;20004;-84
2024/04/09 04:16:33;;;;;;;19.77;13.35;;;16.00;90.40;;;;;;5563880;25;20340;-84
2024/04/09 04:18:59;;;;;;;23.45;13.77;;;16.00;90.40;;;;;;5566093;25;20003;-85
2024/04/09 04:21:25;;;;;;;21.58;13.48;;;16.00;90.30;;;;;;5563602;25;20325;-85
2024/04/09 04:23:54;;;;;;;20.20;12.65;;;16.00;90.40;;;;;;5563291;25;20007;-84
2024/04/09 04:26:21;;;;;;;20.38;12.95;;;16.00;90.40;;;;;;5563260;25;20341;-84
2024/04/09 04:28:49;;;;;;;19.20;13.98;;;15.90;90.60;;;;;;5563247;25;20045;-85
2024/04/09 04:31:20;;;;;;;21.23;13.02;;;15.90;90.40;;;;;;5563367;25;20329;-84
2024/04/09 04:33:47;;;;;;;22.15;14.13;;;15.90;90.40;;;;;;5562997;25;20017;-84
2024/04/09 04:36:14;;;;;;;20.40;14.13;;;15.90;90.60;;;;;;5564324;25;20045;-85
2024/04/09 04:38:40;;;;;;;21.83;14.30;;;15.90;90.60;;;;;;5567055;25;20004;-85
2024/04/09 04:41:06;;;;;;;20.35;14.73;;;16.00;90.70;;;;;;5564230;25;20159;-85
2024/04/09 04:43:33;;;;;;;20.98;14.60;;;15.90;90.70;;;;;;5562901;25;20444;-83
2024/04/09 04:46:00;;;;;;;18.85;14.55;;;15.90;90.70;;;;;;5563039;25;19997;-84
2024/04/09 04:48:27;;;;;;;29.00;19.90;;;16.00;90.70;;;;;;5563438;25;19993;-85
2024/04/09 04:50:53;;;;;;;26.35;15.10;;;16.00;90.70;;;;;;5563441;25;19992;-86
2024/04/09 04:53:19;;;;;;;22.10;16.13;;;16.10;90.60;;;;;;5563673;25;20000;-85
2024/04/09 04:55:46;;;;;;;23.23;15.55;;;16.10;90.70;;;;;;5561322;25;19993;-85
2024/04/09 04:58:12;;;;;;;18.42;14.45;;;16.10;90.70;;;;;;5566668;25;20078;-84
2024/04/09 05:00:41;;;;;;;21.65;13.93;;;16.10;90.70;;;;;;5566431;25;20007;-86
2024/04/09 05:03:08;;;;;;;19.75;14.15;;;16.10;90.70;;;;;;5563210;25;20445;-85
2024/04/09 05:05:34;;;;;;;25.00;15.45;;;16.10;90.60;;;;;;5564594;25;20336;-85
2024/04/09 05:08:00;;;;;;;21.63;15.68;;;16.20;90.70;;;;;;5562774;25;20011;-84
2024/04/09 05:10:26;;;;;;;23.10;15.88;;;16.30;90.70;;;;;;5562636;25;20441;-85
2024/04/09 05:12:53;;;;;;;21.20;15.50;;;16.30;90.60;;;;;;5562665;25;20004;-85
2024/04/09 05:15:20;;;;;;;23.27;17.27;;;16.30;90.60;;;;;;5563402;25;20004;-85
2024/04/09 05:17:47;;;;;;;23.02;16.80;;;16.40;90.60;;;;;;5562399;25;20004;-85
2024/04/09 05:20:14;;;;;;;26.42;17.70;;;16.40;90.60;;;;;;5562869;25;20000;-86
2024/04/09 05:22:49;;;;;;;24.73;18.33;;;16.40;90.60;;;;;;5564423;25;19992;-86
2024/04/09 05:25:16;;;;;;;23.73;18.50;;;16.40;90.60;;;;;;5575668;25;20001;-84
2024/04/09 05:27:43;;;;;;;31.17;17.98;;;16.40;90.70;;;;;;5562700;25;20320;-85
2024/04/09 05:30:10;;;;;;;22.10;17.45;;;16.40;90.70;;;;;;5562288;25;20445;-83
2024/04/09 05:32:41;;;;;;;22.30;17.02;;;16.40;90.60;;;;;;5561951;25;20120;-86
2024/04/09 05:35:09;;;;;;;27.02;17.08;;;16.40;90.60;;;;;;5562548;25;20344;-86
2024/04/09 05:37:35;;;;;;;22.55;16.40;;;16.50;90.80;;;;;;5563570;25;19996;-85
2024/04/09 05:40:01;;;;;;;26.73;17.20;;;16.50;90.70;;;;;;5564586;25;19993;-86
2024/04/09 05:42:27;;;;;;;24.83;17.02;;;16.60;90.60;;;;;;5565999;25;20060;-84
2024/04/09 05:44:52;;;;;;;31.40;19.98;;;16.80;90.50;;;;;;5564296;25;20004;-76
2024/04/09 05:47:18;;;;;;;31.38;23.65;;;16.90;90.20;;;;;;5561417;25;20444;-76
2024/04/09 05:49:47;;;;;;;33.90;22.85;;;17.30;89.80;;;;;;5561496;25;20004;-73
2024/04/09 05:52:13;;;;;;;32.88;21.27;;;18.00;87.30;;;;;;5561331;25;19996;-71
2024/04/09 05:54:43;;;;;;;30.75;20.67;;;18.80;85.40;;;;;;5561816;25;20033;-72
2024/04/09 05:57:09;;;;;;;33.45;23.05;;;19.30;84.00;;;;;;5561354;25;20009;-77
2024/04/09 05:59:35;;;;;;;28.05;20.10;;;19.90;82.80;;;;;;5564509;25;19996;-80
2024/04/09 06:02:01;;;;;;;27.85;18.85;;;20.60;80.80;;;;;;5565894;25;20000;-79
2024/04/09 06:04:26;;;;;;;26.77;18.63;;;21.00;79.00;;;;;;5568636;25;20008;-78
2024/04/09 06:06:52;;;;;;;28.02;20.27;;;21.20;78.40;;;;;;5570248;25;20005;-79
2024/04/09 06:09:19;;;;;;;35.42;19.92;;;21.50;77.70;;;;;;5569402;25;20326;-77
2024/04/09 06:11:44;;;;;;;28.80;17.40;;;21.70;77.50;;;;;;5567807;25;20005;-78
2024/04/09 06:14:10;;;;;;;22.88;16.75;;;21.70;76.50;;;;;;5568245;25;20193;-78
2024/04/09 06:16:36;;;;;;;29.42;17.33;;;21.90;76.10;;;;;;5565285;25;20448;-76
2024/04/09 06:19:02;;;;;;;30.30;17.23;;;22.30;75.30;;;;;;5564824;25;20029;-77
2024/04/09 06:21:28;;;;;;;24.88;16.85;;;22.50;74.30;;;;;;5564846;25;20440;-77
2024/04/09 06:23:53;;;;;;;28.63;16.77;;;23.00;73.40;;;;;;5565214;25;20007;-77
2024/04/09 06:26:20;;;;;;;27.13;16.45;;;23.70;71.70;;;;;;5565075;25;20011;-76
2024/04/09 06:28:46;;;;;;;23.70;16.23;;;24.00;71.00;;;;;;5564541;25;19996;-76
2024/04/09 06:31:12;;;;;;;22.15;16.40;;;24.00;70.60;;;;;;5564615;25;20068;-76
2024/04/09 06:33:40;;;;;;;25.95;17.38;;;24.30;69.90;;;;;;5564508;25;20007;-76
2024/04/09 06:36:06;;;;;;;35.60;18.83;;;24.80;68.70;;;;;;5564470;25;19993;-76
2024/04/09 06:38:31;;;;;;;29.58;18.38;;;25.30;67.30;;;;;;5564839;25;19992;-77
2024/04/09 06:40:58;;;;;;;26.70;17.92;;;25.50;65.80;;;;;;5562470;25;20004;-74
2024/04/09 06:43:23;;;;;;;26.00;17.83;;;25.90;65.20;;;;;;5563944;25;19993;-75
2024/04/09 06:45:49;;;;;;;28.42;17.75;;;25.80;64.90;;;;;;5564075;25;20004;-77
2024/04/09 06:48:15;;;;;;;25.00;17.40;;;25.70;64.70;;;;;;5564404;25;20012;-81
2024/04/09 06:50:41;;;;;;;20.58;15.98;;;25.50;64.70;;;;;;5564314;25;20068;-70
2024/04/09 06:53:07;;;;;;;22.20;17.13;;;25.60;64.30;;;;;;5563947;25;20078;-71
2024/04/09 06:55:33;;;;;;;27.45;16.25;;;25.70;64.50;;;;;;5564365;25;20004;-72
2024/04/09 06:57:59;;;;;;;26.02;15.63;;;25.70;64.50;;;;;;5563993;25;19998;-72
2024/04/09 07:00:25;;;;;;;27.70;17.63;;;26.00;64.20;;;;;;5564338;25;20024;-74
2024/04/09 07:02:52;;;;;;;24.67;15.50;;;26.30;63.10;;;;;;5564101;25;19993;-72
2024/04/09 07:05:19;;;;;;;23.65;15.70;;;26.60;63.20;;;;;;5564321;25;19996;-73
2024/04/09 07:07:44;;;;;;;28.05;15.18;;;27.00;62.50;;;;;;5564395;25;20008;-77
2024/04/09 07:10:11;;;;;;;21.55;15.00;;;27.20;62.10;;;;;;5564134;25;19996;-73
2024/04/09 07:12:37;;;;;;;21.75;15.07;;;27.20;61.80;;;;;;5564863;25;20004;-75
2024/04/09 07:15:03;;;;;;;19.15;14.77;;;27.00;62.00;;;;;;5564148;25;19997;-76
2024/04/09 07:17:29;;;;;;;18.17;14.20;;;26.80;62.20;;;;;;5564513;25;20421;-76
2024/04/09 07:19:58;;;;;;;18.17;13.05;;;26.80;62.50;;;;;;5564337;25;20309;-77
2024/04/09 07:22:24;;;;;;;23.25;14.23;;;26.80;62.60;;;;;;5564265;25;20028;-76
2024/04/09 07:24:50;;;;;;;19.20;13.43;;;26.80;62.10;;;;;;5564490;25;20000;-77
2024/04/09 07:27:16;;;;;;;15.48;12.70;;;26.60;62.40;;;;;;5564401;25;19993;-76
2024/04/09 07:29:42;;;;;;;15.05;11.75;;;26.60;62.40;;;;;;5563927;25;19993;-76
2024/04/09 07:32:07;;;;;;;22.58;12.35;;;26.20;62.80;;;;;;5563960;25;19996;-76
2024/04/09 07:34:36;;;;;;;18.58;13.50;;;25.60;63.80;;;;;;5564205;25;20029;-78
2024/04/09 07:37:02;;;;;;;17.85;14.18;;;25.00;65.10;;;;;;5563966;25;20064;-77
2024/04/09 07:39:28;;;;;;;21.17;13.40;;;24.40;66.20;;;;;;5563842;25;20007;-78
2024/04/09 07:41:55;;;;;;;19.98;13.77;;;23.90;67.60;;;;;;5563621;25;19993;-76
2024/04/09 07:44:20;;;;;;;24.92;13.90;;;23.50;68.30;;;;;;5563967;25;19999;-77
2024/04/09 07:46:49;;;;;;;18.60;13.18;;;23.20;69.20;;;;;;5564121;25;20363;-77
2024/04/09 07:49:15;;;;;;;21.30;13.43;;;23.00;70.00;;;;;;5563771;25;20336;-75
2024/04/09 07:51:42;;;;;;;20.52;13.20;;;22.90;70.80;;;;;;5566376;25;20005;-78
2024/04/09 07:54:09;;;;;;;18.80;14.05;;;23.00;71.00;;;;;;5563439;25;19992;-73
2024/04/09 07:56:34;;;;;;;18.90;13.90;;;22.80;70.60;;;;;;5563945;25;20448;-74
2024/04/09 07:59:01;;;;;;;19.73;13.45;;;22.80;71.30;;;;;;5563288;25;19997;-73
2024/04/09 08:01:27;;;;;;;17.02;12.75;;;22.70;71.20;;;;;;5563229;25;19993;-74
2024/04/09 08:03:53;;;;;;;18.80;12.98;;;22.60;71.50;;;;;;5563729;25;20012;-73
2024/04/09 08:06:18;;;;;;;16.00;12.32;;;22.60;71.60;;;;;;5563065;25;20004;-73
2024/04/09 08:08:44;;;;;;;14.73;11.90;;;22.60;71.70;;;;;;5561466;25;19997;-72
2024/04/09 08:11:11;;;;;;;18.05;13.73;;;22.70;71.70;;;;;;5563642;25;20000;-75
2024/04/09 08:13:37;;;;;;;20.23;12.48;;;22.70;71.80;;;;;;5563808;25;19992;-77
2024/04/09 08:16:03;;;;;;;15.90;12.20;;;22.70;72.00;;;;;;5563319;25;19997;-74
2024/04/09 08:18:29;;;;;;;17.70;12.98;;;22.60;71.40;;;;;;5563326;25;20292;-74
2024/04/09 08:20:55;;;;;;;17.67;12.20;;;22.60;71.20;;;;;;5562375;25;19997;-74
2024/04/09 08:23:21;;;;;;;19.90;13.10;;;22.60;71.30;;;;;;5563380;25;20007;-75
2024/04/09 08:25:49;;;;;;;20.83;13.15;;;22.60;70.70;;;;;;5563146;25;20330;-74
2024/04/09 08:28:18;;;;;;;17.40;12.45;;;22.60;70.50;;;;;;5563279;25;20490;-73
2024/04/09 08:30:48;;;;;;;19.35;12.30;;;22.50;70.30;;;;;;5562619;25;20008;-74
2024/04/09 08:33:14;;;;;;;20.35;13.73;;;22.50;70.10;;;;;;5562527;25;20021;-73
2024/04/09 08:35:45;;;;;;;21.00;12.98;;;22.40;69.90;;;;;;5562834;25;20001;-74
2024/04/09 08:38:12;;;;;;;20.17;13.13;;;22.40;69.70;;;;;;5562837;25;20004;-74
2024/04/09 08:40:38;;;;;;;23.42;12.27;;;22.40;69.90;;;;;;5562870;25;20003;-74
2024/04/09 08:43:04;;;;;;;20.90;11.90;;;22.40;69.70;;;;;;5560782;25;20068;-75
2024/04/09 08:45:31;;;;;;;15.70;11.48;;;22.50;69.40;;;;;;5562614;25;20023;-74
2024/04/09 08:48:00;;;;;;;20.10;12.05;;;22.50;69.50;;;;;;5562455;25;20038;-74
2024/04/09 08:50:26;;;;;;;18.00;10.82;;;22.60;69.10;;;;;;5562688;25;20104;-73
2024/04/09 08:52:54;;;;;;;12.40;8.00;;;22.60;69.10;;;;;;5562519;25;19993;-75
2024/04/09 08:55:21;;;;;;;13.20;7.95;;;22.70;68.60;;;;;;5562349;25;20003;-73
2024/04/09 08:57:48;;;;;;;14.18;6.15;;;22.70;68.10;;;;;;5562585;25;20340;-74
2024/04/09 09:00:16;;;;;;;12.48;5.43;;;22.70;66.90;;;;;;5562746;25;20008;-74
2024/04/09 09:02:43;;;;;;;11.32;4.57;;;22.80;65.90;;;;;;5560315;25;19997;-74
2024/04/09 09:05:19;;;;;;;8.45;4.28;;;22.90;64.90;;;;;;5562286;25;20456;-74
2024/04/09 09:08:01;;;;;;;15.80;4.35;;;23.00;63.70;;;;;;5562626;25;19992;-74
2024/04/09 09:10:27;;;;;;;11.30;3.65;;;23.00;62.50;;;;;;5562468;25;20025;-74
2024/04/09 09:12:57;;;;;;;9.40;3.60;;;23.10;61.10;;;;;;5562520;25;20025;-75
2024/04/09 09:15:23;;;;;;;8.60;3.10;;;23.20;60.50;;;;;;5562635;25;20001;-74
2024/04/09 09:17:49;;;;;;;7.68;2.60;;;23.30;59.70;;;;;;5562491;25;20337;-73
2024/04/09 09:20:16;;;;;;;5.72;3.00;;;23.30;58.30;;;;;;5562040;25;19997;-74
2024/04/09 09:22:46;;;;;;;7.18;3.30;;;23.30;56.70;;;;;;5562078;25;20025;-74
2024/04/09 09:25:18;;;;;;;6.55;2.97;;;23.30;56.20;;;;;;5562457;25;20001;-76
2024/04/09 09:27:44;;;;;;;7.00;2.50;;;23.40;55.90;;;;;;5562262;25;19993;-75
2024/04/09 09:30:12;;;;;;;4.80;2.30;;;23.50;54.70;;;;;;5561806;25;20001;-75
2024/04/09 09:32:43;;;;;;;9.45;3.00;;;23.60;54.20;;;;;;5561341;25;20075;-75
2024/04/09 09:35:15;;;;;;;6.18;2.75;;;23.70;54.00;;;;;;5565859;25;20064;-74
2024/04/09 09:37:42;;;;;;;6.50;2.55;;;23.70;53.20;;;;;;5565901;25;19999;-71
2024/04/09 09:40:09;;;;;;;8.05;3.35;;;23.80;52.80;;;;;;5556677;25;20035;-71
2024/04/09 09:42:36;;;;;;;19.35;3.80;;;23.90;51.90;;;;;;5520725;25;19997;-76
2024/04/09 09:45:06;;;;;;;6.68;2.60;;;24.00;51.20;;;;;;5507052;26;19994;-75
2024/04/09 09:47:37;;;;;;;5.85;2.47;;;24.00;49.00;;;;;;5490790;26;19994;-74
2024/04/09 09:50:08;;;;;;;5.53;2.17;;;24.10;48.10;;;;;;5491040;26;20038;-74
2024/04/09 09:52:34;;;;;;;8.02;2.42;;;24.10;47.60;;;;;;5490743;26;20337;-74
2024/04/09 09:55:04;;;;;;;6.38;2.40;;;24.20;47.40;;;;;;5491651;26;20040;-73
2024/04/09 09:57:34;;;;;;;7.03;2.72;;;24.30;46.10;;;;;;5491402;26;20002;-75
2024/04/09 10:00:09;;;;;;;4.40;1.90;;;24.30;45.60;;;;;;5489276;26;20009;-75
2024/04/09 10:02:38;;;;;;;6.45;2.42;;;24.40;44.50;;;;;;5491340;26;19994;-74
2024/04/09 10:05:05;;;;;;;5.43;2.25;;;24.40;45.20;;;;;;5491276;26;19994;-75
2024/04/09 10:07:33;;;;;;;7.18;2.40;;;24.50;44.90;;;;;;5490967;26;20022;-75
2024/04/09 10:09:58;;;;;;;8.15;3.00;;;24.50;43.90;;;;;;5524687;25;20069;-77
2024/04/09 10:12:32;;;;;;;8.02;3.20;;;24.50;43.50;;;;;;5529004;25;20005;-78
2024/04/09 10:15:14;;;;;;;10.05;3.17;;;24.50;43.20;;;;;;5511229;25;20063;-74
2024/04/09 10:18:09;;;;;;;9.75;3.92;;;24.60;41.90;;;;;;5515399;26;20030;-73
2024/04/09 10:20:36;;;;;;;8.93;4.30;;;24.60;43.50;;;;;;5472668;26;19998;-73
2024/04/09 10:23:05;;;;;;;12.13;5.32;;;24.60;43.60;;;;;;5491247;26;20363;-74
2024/04/09 10:25:42;;;;;;;11.02;4.78;;;24.60;43.90;;;;;;5491425;26;20005;-73
2024/04/09 10:28:28;;;;;;;24.33;6.55;;;24.70;44.40;;;;;;5521530;26;19989;-73
2024/04/09 10:30:58;;;;;;;46.72;7.97;;;24.80;45.40;;;;;;5490401;26;19998;-75
2024/04/09 10:33:28;;;;;;;7.20;3.65;;;24.80;45.80;;;;;;5490426;26;20002;-74
2024/04/09 10:35:57;;;;;;;11.57;3.53;;;24.90;46.10;;;;;;5490362;26;20008;-74
2024/04/09 10:38:24;;;;;;;11.85;3.42;;;25.00;46.30;;;;;;5513703;25;20018;-75
2024/04/09 10:40:50;;;;;;;8.63;3.40;;;25.10;46.80;;;;;;5514657;25;19997;-73
2024/04/09 10:43:16;;;;;;;9.13;3.42;;;25.20;47.40;;;;;;5527740;25;20315;-76
2024/04/09 10:45:42;;;;;;;8.30;3.28;;;25.30;47.30;;;;;;5526838;25;20064;-75
2024/04/09 10:48:08;;;;;;;9.15;3.22;;;25.40;47.60;;;;;;5527317;25;20062;-76
2024/04/09 10:50:34;;;;;;;6.60;3.10;;;25.40;47.90;;;;;;5527242;25;20005;-84
2024/04/09 10:53:00;;;;;;;6.72;2.70;;;25.50;47.80;;;;;;5527518;25;19993;-75
2024/04/09 10:55:27;;;;;;;8.65;3.00;;;25.50;48.00;;;;;;5517764;25;20351;-79
2024/04/09 10:57:53;;;;;;;7.05;3.05;;;25.50;47.50;;;;;;5506752;26;20005;-79
2024/04/09 11:00:20;;;;;;;6.63;2.53;;;25.60;47.30;;;;;;5490257;26;20005;-79
2024/04/09 11:02:47;;;;;;;6.82;2.50;;;25.60;46.90;;;;;;5504896;26;19997;-78
2024/04/09 11:05:16;;;;;;;10.20;2.70;;;25.70;46.90;;;;;;5527559;25;20320;-78
2024/04/09 11:07:43;;;;;;;8.43;2.92;;;25.70;47.20;;;;;;5527210;25;20000;-80
2024/04/09 11:10:14;;;;;;;6.00;3.10;;;25.80;47.50;;;;;;5526742;25;20000;-72
2024/04/09 11:12:48;;;;;;;8.25;2.35;;;25.90;47.10;;;;;;5526699;25;20336;-71
2024/04/09 11:15:17;;;;;;;6.50;1.92;;;25.90;44.80;;;;;;5526713;25;19997;-70
2024/04/09 11:17:43;;;;;;;5.97;2.00;;;25.90;44.50;;;;;;5527104;25;20004;-71
2024/04/09 11:20:11;;;;;;;4.53;2.20;;;25.90;44.80;;;;;;5526335;25;19993;-73
2024/04/09 11:22:43;;;;;;;5.13;2.50;;;26.00;45.20;;;;;;5524409;26;19993;-75
2024/04/09 11:25:13;;;;;;;7.13;2.38;;;26.00;45.10;;;;;;5517526;25;19995;-73
2024/04/09 11:27:39;;;;;;;9.45;2.50;;;26.00;44.80;;;;;;5523660;26;19993;-73
2024/04/09 11:30:09;;;;;;;8.15;2.72;;;26.10;44.50;;;;;;5526610;25;20305;-72
2024/04/09 11:32:40;;;;;;;7.28;2.60;;;26.10;44.00;;;;;;5526405;25;19998;-73
2024/04/09 11:35:30;;;;;;;4.43;2.40;;;26.10;44.20;;;;;;5513858;25;20016;-72
2024/04/09 11:37:57;;;;;;;10.35;2.72;;;26.20;44.20;;;;;;5491946;25;20071;-74
2024/04/09 11:40:24;;;;;;;6.53;2.22;;;26.20;45.00;;;;;;5489353;26;19998;-72
2024/04/09 11:42:51;;;;;;;8.00;2.72;;;26.30;44.70;;;;;;5489556;26;20469;-73
2024/04/09 11:45:28;;;;;;;8.18;2.45;;;26.20;44.40;;;;;;5489794;26;20009;-74
2024/04/09 11:47:54;;;;;;;13.88;2.72;;;26.20;43.80;;;;;;5489310;26;20026;-73
2024/04/09 11:50:21;;;;;;;21.60;3.47;;;26.20;44.70;;;;;;5489300;26;19994;-73
2024/04/09 11:52:47;;;;;;;10.40;2.75;;;26.30;44.80;;;;;;5489443;26;20002;-74
2024/04/09 11:55:13;;;;;;;13.15;2.50;;;26.30;44.10;;;;;;5488957;26;20026;-73
2024/04/09 11:57:43;;;;;;;6.55;2.53;;;26.30;44.60;;;;;;5487781;26;20009;-73
2024/04/09 12:00:13;;;;;;;13.70;2.70;;;26.40;43.80;;;;;;5488595;26;19994;-69
2024/04/09 12:02:43;;;;;;;10.00;2.50;;;26.40;43.40;;;;;;5494168;26;20070;-75
2024/04/09 12:05:10;;;;;;;8.30;2.40;;;26.50;42.30;;;;;;5510913;25;20025;-75
2024/04/09 12:07:37;;;;;;;9.65;2.25;;;26.60;40.70;;;;;;5526044;25;20546;-74
2024/04/09 12:10:07;;;;;;;6.57;1.90;;;26.60;39.70;;;;;;5522118;25;20038;-75
2024/04/09 12:12:34;;;;;;;5.97;1.77;;;26.70;37.50;;;;;;5517627;25;20000;-75
2024/04/09 12:15:00;;;;;;;6.43;1.73;;;26.70;38.30;;;;;;5502738;25;19986;-75
2024/04/09 12:17:26;;;;;;;10.63;1.75;;;26.70;37.70;;;;;;5485424;26;20018;-74
2024/04/09 12:19:52;;;;;;;6.82;1.77;;;26.70;37.40;;;;;;5489434;26;20066;-76
2024/04/09 12:22:18;;;;;;;5.25;1.50;;;26.80;37.10;;;;;;5489087;26;19990;-77
2024/04/09 12:24:44;;;;;;;5.57;1.60;;;26.80;36.90;;;;;;5489020;26;19994;-75
2024/04/09 12:27:10;;;;;;;3.13;1.33;;;26.80;37.10;;;;;;5489355;26;20004;-76
2024/04/09 12:29:36;;;;;;;4.88;1.58;;;26.80;36.90;;;;;;5489316;26;20002;-74
2024/04/09 12:32:03;;;;;;;4.63;1.42;;;26.80;36.00;;;;;;5488983;26;19990;-75
2024/04/09 12:34:30;;;;;;;6.10;1.67;;;26.90;35.90;;;;;;5489108;26;20073;-74